Time;durP1;ratioP1;P1;durP2;ratioP2;P2;SDS_P1;SDS_P2;PMS_P1;PMS_P2;Temp;Humidity;BMP_temperature;BMP_pressure;BME280_temperature;BME280_humidity;BME280_pressure;Samples;Min_cycle;Max_cycle;Signal;HPM_P1;HPM_P2
2022/05/23 00:02:18;;;;;;;10.93;4.70;;;19.00;99.90;;;;;;4737379;30;20053;-92
2022/05/23 00:04:46;;;;;;;9.15;4.80;;;19.00;99.90;;;;;;4721027;30;20493;-91
2022/05/23 00:07:34;;;;;;;7.75;5.10;;;19.00;99.90;;;;;;4737703;30;20591;-91
2022/05/23 00:10:02;;;;;;;12.15;5.22;;;19.00;99.90;;;;;;4752406;30;20036;-92
2022/05/23 00:12:30;;;;;;;12.07;4.90;;;19.00;99.90;;;;;;4737142;30;20028;-93
2022/05/23 00:14:56;;;;;;;7.38;4.57;;;18.90;99.90;;;;;;4736587;30;20040;-91
2022/05/23 00:17:23;;;;;;;7.97;5.13;;;18.90;99.90;;;;;;4750269;30;20029;-92
2022/05/23 00:19:50;;;;;;;10.40;4.80;;;18.80;99.90;;;;;;4752207;30;20075;-90
2022/05/23 00:22:18;;;;;;;11.32;4.57;;;18.80;99.90;;;;;;4723292;30;20044;-92
2022/05/23 00:24:46;;;;;;;10.38;4.90;;;18.80;99.90;;;;;;4751836;30;20040;-90
2022/05/23 00:27:19;;;;;;;11.07;5.03;;;18.80;99.90;;;;;;4738176;30;20119;-91
2022/05/23 00:29:50;;;;;;;9.40;5.18;;;18.80;99.90;;;;;;4751371;30;20407;-91
2022/05/23 00:35:18;;;;;;;9.93;4.43;;;18.60;99.90;;;;;;4752449;30;20096;-91
2022/05/23 00:37:50;;;;;;;8.55;4.40;;;18.60;99.90;;;;;;4751436;30;20040;-91
2022/05/23 00:43:13;;;;;;;9.88;4.47;;;18.50;99.90;;;;;;4751157;30;20041;-91
2022/05/23 00:43:41;;;;;;;5.85;4.28;;;18.40;99.90;;;;;;4751610;30;20053;-91
2022/05/23 00:46:10;;;;;;;11.00;4.97;;;18.40;99.90;;;;;;4736594;30;20039;-92
2022/05/23 00:48:37;;;;;;;9.05;5.30;;;18.40;99.90;;;;;;4736179;30;20476;-91
2022/05/23 00:51:17;;;;;;;7.60;5.05;;;18.40;99.90;;;;;;4736594;30;20037;-92
2022/05/23 00:53:57;;;;;;;11.27;5.32;;;18.50;99.90;;;;;;4750372;30;20036;-90
2022/05/23 00:56:43;;;;;;;11.02;5.00;;;18.50;99.90;;;;;;4751160;30;20123;-92
2022/05/23 00:59:13;;;;;;;8.52;5.07;;;18.50;99.90;;;;;;4738409;30;20064;-91
2022/05/23 01:01:41;;;;;;;9.63;5.35;;;18.50;99.90;;;;;;4738566;30;20043;-93
2022/05/23 01:04:07;;;;;;;12.73;4.95;;;18.50;99.90;;;;;;4753114;30;20048;-91
2022/05/23 01:06:35;;;;;;;11.38;5.40;;;18.50;99.90;;;;;;4753392;30;20115;-90
2022/05/23 01:09:02;;;;;;;10.55;5.47;;;18.40;99.90;;;;;;4752891;30;20029;-92
2022/05/23 01:11:29;;;;;;;11.77;5.55;;;18.40;99.90;;;;;;4752647;30;20032;-92
2022/05/23 01:13:55;;;;;;;9.55;6.00;;;18.40;99.90;;;;;;4755658;30;20055;-93
2022/05/23 01:16:25;;;;;;;10.88;5.72;;;18.30;99.90;;;;;;4756357;30;20028;-93
2022/05/23 01:18:55;;;;;;;13.02;5.78;;;18.30;99.90;;;;;;4756077;30;20059;-92
2022/05/23 01:21:44;;;;;;;12.85;6.03;;;18.30;99.90;;;;;;4756179;30;20036;-91
2022/05/23 01:24:29;;;;;;;9.15;5.30;;;18.30;99.90;;;;;;4756035;30;20044;-92
2022/05/23 01:26:59;;;;;;;11.57;5.93;;;18.30;99.90;;;;;;4756619;30;20069;-91
2022/05/23 01:29:35;;;;;;;10.93;5.82;;;18.30;99.90;;;;;;4756424;30;20040;-92
2022/05/23 01:32:12;;;;;;;13.18;5.75;;;18.30;99.90;;;;;;4755919;30;20036;-92
2022/05/23 01:34:44;;;;;;;12.57;6.10;;;18.30;99.90;;;;;;4755973;30;20042;-92
2022/05/23 01:37:16;;;;;;;9.70;5.95;;;18.30;99.90;;;;;;4756426;30;20044;-91
2022/05/23 01:40:01;;;;;;;12.32;6.10;;;18.30;99.90;;;;;;4768687;30;20098;-90
2022/05/23 01:42:57;;;;;;;7.13;5.63;;;18.40;99.90;;;;;;4703608;30;20202;-92
2022/05/23 01:45:31;;;;;;;12.15;5.85;;;18.40;99.90;;;;;;4689213;30;20033;-92
2022/05/23 01:48:10;;;;;;;11.95;5.57;;;18.40;99.90;;;;;;4688679;30;20096;-93
2022/05/23 01:50:37;;;;;;;8.75;5.38;;;18.30;99.90;;;;;;4688337;30;20461;-92
2022/05/23 01:53:14;;;;;;;10.18;5.40;;;18.30;99.90;;;;;;4688573;30;20052;-91
2022/05/23 01:56:03;;;;;;;10.65;6.07;;;18.20;99.90;;;;;;4688710;30;20040;-92
2022/05/23 02:01:28;;;;;;;8.45;5.78;;;18.10;99.90;;;;;;4703613;30;20050;-91
2022/05/23 02:03:58;;;;;;;14.05;6.40;;;18.00;99.90;;;;;;4688992;30;20084;-91
2022/05/23 02:06:31;;;;;;;10.13;6.25;;;18.10;99.90;;;;;;4689478;30;20048;-92
2022/05/23 02:09:08;;;;;;;11.52;5.82;;;18.00;99.90;;;;;;4689002;30;20068;-91
2022/05/23 02:11:41;;;;;;;12.40;5.63;;;18.00;99.90;;;;;;4690680;30;20037;-91
2022/05/23 02:14:13;;;;;;;11.20;5.95;;;18.00;99.90;;;;;;4694090;30;20048;-91
2022/05/23 02:16:44;;;;;;;13.77;6.22;;;18.10;99.90;;;;;;4692819;30;20045;-90
2022/05/23 02:19:11;;;;;;;11.10;6.07;;;18.10;99.90;;;;;;4720997;30;20048;-92
2022/05/23 02:21:38;;;;;;;12.98;5.90;;;18.10;99.90;;;;;;4757597;30;20028;-91
2022/05/23 02:24:05;;;;;;;11.20;6.13;;;18.10;99.90;;;;;;4762453;30;20495;-91
2022/05/23 02:26:35;;;;;;;8.93;5.00;;;18.00;99.90;;;;;;4759156;30;20115;-91
2022/05/23 02:29:15;;;;;;;10.73;5.72;;;18.10;99.90;;;;;;4762002;30;20036;-92
2022/05/23 02:31:41;;;;;;;8.07;5.20;;;18.00;99.90;;;;;;4762543;30;20399;-91
2022/05/23 02:34:12;;;;;;;12.27;5.22;;;18.00;99.90;;;;;;4773378;30;20108;-91
2022/05/23 02:36:47;;;;;;;7.93;5.40;;;18.10;99.90;;;;;;4772924;30;20140;-91
2022/05/23 02:39:17;;;;;;;9.68;4.97;;;18.10;99.90;;;;;;4774655;30;20062;-90
2022/05/23 02:41:51;;;;;;;7.63;5.47;;;18.00;99.90;;;;;;4770778;30;20064;-90
2022/05/23 02:44:24;;;;;;;;;;;18.00;99.90;;;;;;4755918;30;20383;-90
2022/05/23 02:46:50;;;;;;;12.63;6.30;;;17.90;99.90;;;;;;4758893;30;19968;-91
2022/05/23 02:49:20;;;;;;;7.55;5.70;;;17.90;99.90;;;;;;4754446;30;20035;-90
2022/05/23 02:51:49;;;;;;;15.57;5.82;;;17.90;99.90;;;;;;4768739;30;20040;-92
2022/05/23 02:54:16;;;;;;;12.40;6.20;;;17.80;99.90;;;;;;4754135;30;20033;-91
2022/05/23 02:56:50;;;;;;;10.95;4.80;;;17.80;99.90;;;;;;4768730;30;20169;-90
2022/05/23 02:59:22;;;;;;;10.68;5.80;;;17.80;99.90;;;;;;4769042;30;20197;-91
2022/05/23 03:04:44;;;;;;;8.60;5.13;;;17.80;99.90;;;;;;4754882;30;20047;-90
2022/05/23 03:07:12;;;;;;;8.05;5.55;;;17.70;99.90;;;;;;4753722;30;20039;-90
2022/05/23 03:09:40;;;;;;;11.27;5.45;;;17.70;99.90;;;;;;4753819;30;20119;-92
2022/05/23 03:12:17;;;;;;;10.02;5.85;;;17.70;99.90;;;;;;4753778;30;20068;-91
2022/05/23 03:14:44;;;;;;;12.52;6.20;;;17.60;99.90;;;;;;4770046;30;20028;-89
2022/05/23 03:17:13;;;;;;;9.20;5.15;;;17.60;99.90;;;;;;4753543;30;20499;-90
2022/05/23 03:19:43;;;;;;;10.68;5.63;;;17.70;99.90;;;;;;4753370;30;20449;-93
2022/05/23 03:27:48;;;;;;;12.02;5.57;;;17.50;99.90;;;;;;4753355;30;20150;-90
2022/05/23 03:30:21;;;;;;;13.23;5.65;;;17.50;99.90;;;;;;4753471;30;20063;-92
2022/05/23 03:33:07;;;;;;;12.02;5.38;;;17.50;99.90;;;;;;4753690;30;20487;-92
2022/05/23 03:35:35;;;;;;;11.85;5.80;;;17.60;99.90;;;;;;4753139;30;20402;-91
2022/05/23 03:38:03;;;;;;;11.32;5.43;;;17.60;99.90;;;;;;4753755;30;20025;-91
2022/05/23 03:40:38;;;;;;;12.40;6.32;;;17.70;99.90;;;;;;4753193;30;20561;-92
2022/05/23 03:43:05;;;;;;;12.68;5.88;;;17.70;99.90;;;;;;4753241;30;20411;-91
2022/05/23 03:45:37;;;;;;;15.40;6.65;;;17.70;99.90;;;;;;4753129;30;20455;-92
2022/05/23 03:48:09;;;;;;;13.90;6.38;;;17.80;99.90;;;;;;4753071;30;20055;-91
2022/05/23 03:50:37;;;;;;;14.63;5.50;;;17.80;99.90;;;;;;4753193;30;20032;-90
2022/05/23 03:53:07;;;;;;;10.00;5.65;;;17.90;99.90;;;;;;4753181;30;20126;-91
2022/05/23 03:55:38;;;;;;;11.05;5.45;;;18.00;99.90;;;;;;4753322;30;20043;-92
2022/05/23 03:58:14;;;;;;;13.82;5.82;;;18.10;99.90;;;;;;4752819;30;20040;-90
2022/05/23 04:00:43;;;;;;;9.40;5.38;;;18.20;99.90;;;;;;4764200;30;20053;-91
2022/05/23 04:03:12;;;;;;;9.82;5.78;;;18.20;99.90;;;;;;4767469;30;20055;-91
2022/05/23 04:05:41;;;;;;;16.23;5.80;;;18.30;99.90;;;;;;4767636;30;20074;-92
2022/05/23 04:08:43;;;;;;;11.05;5.82;;;18.40;99.90;;;;;;4700006;30;20034;-90
2022/05/23 04:11:10;;;;;;;16.58;5.70;;;18.50;99.90;;;;;;4700092;30;20132;-89
2022/05/23 04:13:40;;;;;;;15.50;6.00;;;18.40;99.90;;;;;;4699779;30;20127;-91
2022/05/23 04:16:07;;;;;;;13.02;5.95;;;18.40;99.90;;;;;;4699898;30;20050;-91
2022/05/23 04:18:36;;;;;;;17.02;5.93;;;18.50;99.90;;;;;;4699643;30;20033;-91
2022/05/23 04:21:04;;;;;;;10.48;5.80;;;18.60;99.90;;;;;;4699443;30;20040;-92
2022/05/23 04:23:36;;;;;;;9.25;5.60;;;18.90;99.90;;;;;;4699362;30;20053;-90
2022/05/23 04:26:08;;;;;;;9.73;5.18;;;19.00;99.90;;;;;;4699214;30;20038;-91
2022/05/23 04:28:41;;;;;;;10.43;5.30;;;19.20;99.90;;;;;;4699653;30;20132;-91
2022/05/23 04:31:09;;;;;;;9.38;5.10;;;19.40;99.90;;;;;;4699731;30;20119;-89
2022/05/23 04:36:50;;;;;;;10.95;4.75;;;19.60;99.90;;;;;;4701081;30;20520;-92
2022/05/23 04:39:25;;;;;;;11.02;4.53;;;20.00;99.90;;;;;;4700107;30;20034;-91
2022/05/23 04:41:52;;;;;;;15.45;5.00;;;20.20;99.90;;;;;;4712779;30;20070;-92
2022/05/23 04:44:25;;;;;;;11.10;4.88;;;20.60;99.90;;;;;;4756905;30;20032;-95
2022/05/23 04:49:49;;;;;;;12.52;4.85;;;20.90;99.90;;;;;;4756896;30;20039;-92
2022/05/23 04:52:35;;;;;;;8.13;4.78;;;21.00;99.90;;;;;;4768816;30;20399;-91
2022/05/23 04:55:03;;;;;;;16.20;4.97;;;21.10;99.90;;;;;;4770800;30;20059;-92
2022/05/23 04:57:33;;;;;;;11.80;4.65;;;21.00;99.90;;;;;;4755932;30;20170;-92
2022/05/23 05:00:06;;;;;;;10.35;4.63;;;21.10;99.90;;;;;;4770604;30;20392;-91
2022/05/23 05:02:41;;;;;;;10.70;4.95;;;21.30;99.90;;;;;;4756773;30;20097;-91
2022/05/23 05:05:11;;;;;;;9.32;4.70;;;21.40;99.90;;;;;;4756169;30;20043;-90
2022/05/23 05:07:50;;;;;;;8.23;4.38;;;21.50;99.90;;;;;;4756391;30;20032;-90
2022/05/23 05:10:18;;;;;;;8.73;4.45;;;21.50;99.90;;;;;;4771232;30;20036;-92
2022/05/23 05:12:45;;;;;;;12.27;5.55;;;21.60;99.90;;;;;;4747809;30;20087;-90
2022/05/23 05:15:17;;;;;;;14.55;4.82;;;21.80;99.90;;;;;;4759915;29;20040;-93
2022/05/23 05:17:44;;;;;;;12.07;5.68;;;21.90;99.90;;;;;;4760077;30;20108;-90
2022/05/23 05:20:12;;;;;;;14.80;5.10;;;22.00;99.90;;;;;;4760123;30;20028;-92
2022/05/23 05:23:06;;;;;;;14.48;5.03;;;22.00;99.90;;;;;;4744200;30;20079;-91
2022/05/23 05:25:51;;;;;;;18.98;5.65;;;22.30;99.90;;;;;;4761334;30;20041;-93
2022/05/23 05:28:23;;;;;;;16.20;5.45;;;22.60;99.90;;;;;;4759890;30;20028;-91
2022/05/23 05:31:15;;;;;;;18.58;5.93;;;22.60;99.90;;;;;;4761788;30;20024;-91
2022/05/23 05:33:50;;;;;;;10.73;4.82;;;22.60;99.90;;;;;;4747284;30;20063;-89
2022/05/23 05:36:21;;;;;;;17.38;5.72;;;22.80;99.90;;;;;;4763246;30;20055;-91
2022/05/23 05:39:16;;;;;;;8.35;4.40;;;22.90;99.90;;;;;;4746569;30;20135;-91
2022/05/23 05:41:53;;;;;;;11.10;4.80;;;22.90;99.90;;;;;;4694484;30;20564;-91
2022/05/23 05:44:28;;;;;;;10.40;5.00;;;23.00;99.90;;;;;;4683453;30;20069;-91
2022/05/23 05:47:00;;;;;;;12.60;5.45;;;23.10;99.90;;;;;;4688086;30;20517;-90
2022/05/23 05:49:31;;;;;;;9.15;4.63;;;23.00;99.90;;;;;;4673645;30;20160;-91
2022/05/23 05:52:12;;;;;;;11.82;5.03;;;23.00;99.90;;;;;;4689706;30;20100;-92
2022/05/23 05:54:51;;;;;;;12.88;4.85;;;23.30;99.90;;;;;;4689054;30;20037;-91
2022/05/23 05:57:19;;;;;;;10.90;4.30;;;23.60;99.90;;;;;;4673879;30;20034;-91
2022/05/23 05:59:49;;;;;;;10.68;4.78;;;23.90;99.90;;;;;;4667005;30;20058;-91
2022/05/23 06:02:18;;;;;;;7.97;4.40;;;24.20;99.90;;;;;;4652722;30;20549;-91
2022/05/23 06:04:46;;;;;;;9.48;4.57;;;24.40;99.90;;;;;;4667131;30;20050;-91
2022/05/23 06:13:04;;;;;;;10.23;3.60;;;25.50;99.90;;;;;;4656337;30;20046;-94
2022/05/23 06:16:00;;;;;;;11.05;3.70;;;25.60;99.90;;;;;;4630182;30;20511;-93
2022/05/23 06:18:35;;;;;;;8.82;3.70;;;26.00;99.90;;;;;;4655958;30;20031;-93
2022/05/23 06:21:06;;;;;;;7.57;3.47;;;26.60;99.90;;;;;;4660901;30;20129;-95
2022/05/23 06:23:36;;;;;;;;;;;27.00;99.90;;;;;;4675872;30;20062;-94
2022/05/23 06:26:26;;;;;;;8.40;3.83;;;27.10;99.90;;;;;;4655379;30;19915;-92
2022/05/23 06:29:11;;;;;;;9.32;4.00;;;26.70;99.90;;;;;;4667797;30;20080;-92
2022/05/23 06:31:40;;;;;;;9.10;4.07;;;26.50;99.90;;;;;;4667132;30;20047;-92
2022/05/23 06:34:12;;;;;;;9.00;4.22;;;26.60;99.90;;;;;;4650262;30;20122;-91
2022/05/23 06:36:40;;;;;;;9.48;3.97;;;27.20;99.90;;;;;;4658995;30;20038;-93
2022/05/23 06:39:07;;;;;;;9.20;4.15;;;28.10;99.90;;;;;;4684112;30;20034;-89
2022/05/23 06:42:07;;;;;;;9.98;3.80;;;29.20;99.90;;;;;;4683884;30;20078;-92
2022/05/23 06:44:53;;;;;;;7.13;4.07;;;30.00;99.90;;;;;;4684466;30;20452;-93
2022/05/23 06:47:39;;;;;;;8.23;3.67;;;30.50;99.90;;;;;;4684256;30;20432;-94
2022/05/23 06:50:47;;;;;;;8.70;3.90;;;30.20;99.90;;;;;;4694296;30;20046;-93
2022/05/23 06:53:23;;;;;;;8.57;3.90;;;30.20;99.90;;;;;;4690036;30;20042;-90
2022/05/23 06:56:01;;;;;;;7.85;4.38;;;30.30;99.90;;;;;;4716227;30;20049;-92
2022/05/23 06:58:30;;;;;;;11.98;4.00;;;30.60;99.90;;;;;;4715505;30;20410;-93
2022/05/23 07:00:58;;;;;;;10.02;4.15;;;29.80;99.90;;;;;;4715080;30;20064;-93
2022/05/23 07:03:44;;;;;;;6.55;3.20;;;29.60;99.90;;;;;;4713059;30;20053;-92
2022/05/23 07:14:38;;;;;;;7.22;3.58;;;30.80;99.90;;;;;;4698296;30;20417;-93
2022/05/23 07:17:05;;;;;;;7.85;3.45;;;30.90;99.90;;;;;;4697623;30;20049;-91
2022/05/23 07:19:52;;;;;;;7.75;3.53;;;30.30;99.90;;;;;;4677458;30;20084;-92
2022/05/23 07:22:21;;;;;;;5.78;3.30;;;30.20;99.90;;;;;;4746387;30;20147;-95
2022/05/23 07:24:49;;;;;;;10.32;4.25;;;30.00;99.90;;;;;;4768348;29;20036;-93
2022/05/23 07:27:26;;;;;;;8.95;3.85;;;29.80;99.90;;;;;;4767570;29;20040;-92
2022/05/23 07:29:54;;;;;;;9.30;3.70;;;29.50;99.90;;;;;;4768088;30;20067;-94
2022/05/23 07:32:23;;;;;;;7.95;3.80;;;30.00;99.90;;;;;;4767936;29;20302;-92
2022/05/23 07:34:50;;;;;;;7.00;3.53;;;30.00;99.90;;;;;;4768330;29;20033;-94
2022/05/23 07:37:17;;;;;;;8.93;3.75;;;29.90;99.90;;;;;;4778025;29;20048;-94
2022/05/23 07:39:45;;;;;;;6.45;3.92;;;30.20;99.90;;;;;;4779534;29;20418;-91
2022/05/23 07:42:36;;;;;;;10.65;4.07;;;30.60;99.90;;;;;;4774866;29;20036;-91
2022/05/23 07:45:07;;;;;;;13.60;3.67;;;30.40;99.90;;;;;;4778950;29;20040;-93
2022/05/23 07:47:36;;;;;;;9.18;4.30;;;30.10;99.90;;;;;;4755170;30;20479;-93
2022/05/23 07:50:36;;;;;;;5.30;3.50;;;29.70;99.90;;;;;;4720085;30;20037;-93
2022/05/23 08:01:52;;;;;;;5.70;3.53;;;31.00;99.90;;;;;;4704178;30;20045;-93
2022/05/23 08:04:22;;;;;;;8.88;4.70;;;31.10;99.90;;;;;;4784008;24;20078;-95
2022/05/23 08:06:52;;;;;;;9.02;4.13;;;30.50;99.90;;;;;;4778401;30;20031;-92
2022/05/23 08:09:21;;;;;;;6.97;4.05;;;30.50;99.90;;;;;;4773674;30;20039;-94
2022/05/23 08:12:00;;;;;;;9.98;4.05;;;29.70;99.90;;;;;;4773605;30;20040;-93
2022/05/23 08:14:29;;;;;;;10.68;3.70;;;29.80;99.90;;;;;;4773667;30;20571;-92
2022/05/23 08:17:02;;;;;;;8.77;3.63;;;29.50;99.90;;;;;;4759563;30;20031;-91
2022/05/23 08:19:33;;;;;;;9.90;3.40;;;29.10;99.90;;;;;;4773842;30;20043;-95
2022/05/23 08:22:13;;;;;;;11.00;4.28;;;29.00;99.90;;;;;;4773226;30;20035;-91
2022/05/23 08:24:48;;;;;;;12.13;3.70;;;29.10;99.90;;;;;;4773917;30;20023;-91
2022/05/23 08:27:16;;;;;;;10.05;3.83;;;29.10;99.90;;;;;;4773585;30;20042;-93
2022/05/23 08:29:54;;;;;;;11.18;3.63;;;28.80;99.90;;;;;;4773105;30;20042;-92
2022/05/23 08:32:21;;;;;;;;;;;28.90;99.90;;;;;;4773498;30;20043;-92
2022/05/23 08:35:00;;;;;;;7.28;3.50;;;28.50;99.90;;;;;;4773449;29;20371;-93
2022/05/23 08:37:27;;;;;;;6.00;3.60;;;28.60;99.90;;;;;;4773130;30;20031;-91
2022/05/23 08:39:55;;;;;;;9.40;3.88;;;29.40;99.90;;;;;;4773279;30;20027;-92
2022/05/23 08:42:48;;;;;;;6.68;4.28;;;30.20;99.90;;;;;;4772955;30;20501;-94
2022/05/23 08:45:35;;;;;;;10.05;3.88;;;30.20;99.90;;;;;;4773122;30;20062;-91
2022/05/23 08:48:28;;;;;;;8.88;3.85;;;30.30;99.90;;;;;;4773251;30;20039;-91
2022/05/23 08:51:10;;;;;;;8.07;3.95;;;30.10;99.90;;;;;;4773091;30;20040;-91
2022/05/23 08:54:23;;;;;;;7.87;3.73;;;29.90;99.90;;;;;;4773124;30;20042;-92
2022/05/23 08:56:58;;;;;;;14.57;4.25;;;28.70;99.90;;;;;;4774547;30;20035;-91
2022/05/23 08:59:53;;;;;;;9.70;3.90;;;28.60;99.90;;;;;;4780601;30;20047;-92
2022/05/23 09:03:12;;;;;;;10.85;4.45;;;29.40;99.90;;;;;;4773795;29;20100;-91
2022/05/23 09:05:49;;;;;;;10.68;4.47;;;29.20;99.90;;;;;;4740578;30;20123;-91
2022/05/23 09:08:23;;;;;;;6.50;3.78;;;29.40;99.90;;;;;;4754796;30;20499;-92
2022/05/23 09:11:05;;;;;;;6.82;3.83;;;29.20;99.90;;;;;;4754955;30;20103;-91
2022/05/23 09:13:44;;;;;;;8.00;3.63;;;29.70;99.90;;;;;;4754562;30;20032;-92
2022/05/23 09:16:14;;;;;;;8.00;3.40;;;29.40;99.90;;;;;;4754552;30;20097;-94
2022/05/23 09:19:17;;;;;;;10.25;3.80;;;28.90;99.90;;;;;;4755476;30;20094;-92
2022/05/23 09:24:57;;;;;;;9.95;3.78;;;29.20;99.90;;;;;;4757134;30;20055;-92
2022/05/23 09:27:51;;;;;;;7.63;3.65;;;29.60;99.90;;;;;;4722674;30;20056;-93
2022/05/23 09:30:32;;;;;;;11.02;3.97;;;29.40;99.90;;;;;;4709823;30;20129;-92
2022/05/23 09:33:02;;;;;;;8.55;3.90;;;29.70;99.90;;;;;;4719615;30;20055;-91
2022/05/23 09:36:02;;;;;;;7.55;3.83;;;30.20;99.90;;;;;;4701434;30;20045;-93
2022/05/23 09:38:32;;;;;;;8.02;3.92;;;29.70;99.90;;;;;;4702225;30;20045;-91
2022/05/23 09:41:04;;;;;;;10.02;3.88;;;29.60;99.90;;;;;;4702718;30;20240;-92
2022/05/23 09:49:20;;;;;;;7.85;3.72;;;29.50;99.90;;;;;;4687709;30;20042;-91
2022/05/23 09:52:14;;;;;;;8.77;3.83;;;29.50;99.90;;;;;;4701983;30;20041;-91
2022/05/23 09:54:54;;;;;;;5.97;3.30;;;29.00;99.90;;;;;;4701941;30;20049;-91
2022/05/23 09:57:27;;;;;;;12.43;3.72;;;28.90;99.90;;;;;;4702084;30;20048;-93
2022/05/23 10:00:01;;;;;;;9.80;4.80;;;28.70;99.90;;;;;;4687435;30;20033;-92
2022/05/23 10:02:39;;;;;;;8.25;3.80;;;28.80;99.90;;;;;;4705089;30;20057;-93
2022/05/23 10:05:26;;;;;;;12.95;4.15;;;28.90;99.90;;;;;;4776847;30;20130;-91
2022/05/23 10:08:01;;;;;;;10.82;3.88;;;29.10;99.90;;;;;;4790574;29;20031;-91
2022/05/23 10:10:32;;;;;;;8.50;3.30;;;29.00;99.90;;;;;;4790479;29;20042;-93
2022/05/23 10:13:41;;;;;;;6.57;3.55;;;28.60;99.90;;;;;;4790230;29;20062;-90
2022/05/23 10:16:26;;;;;;;7.70;3.60;;;28.60;99.90;;;;;;4790205;29;20047;-93
2022/05/23 10:19:03;;;;;;;11.20;3.67;;;28.40;99.90;;;;;;4790417;29;20038;-91
2022/05/23 10:21:44;;;;;;;14.68;3.72;;;28.30;99.90;;;;;;4790066;29;20608;-92
2022/05/23 10:24:22;;;;;;;11.60;4.00;;;28.20;99.90;;;;;;4790112;29;20051;-91
2022/05/23 10:27:00;;;;;;;7.78;3.45;;;28.50;99.90;;;;;;4790230;30;20027;-91
2022/05/23 10:29:36;;;;;;;16.85;4.28;;;28.50;99.90;;;;;;4790296;30;20406;-90
2022/05/23 10:32:11;;;;;;;6.57;3.30;;;28.60;99.90;;;;;;4790345;30;20031;-92
2022/05/23 10:34:42;;;;;;;9.38;3.20;;;28.60;99.90;;;;;;4790106;30;20032;-93
2022/05/23 10:37:22;;;;;;;7.97;3.50;;;28.60;99.90;;;;;;4790948;29;20061;-93
2022/05/23 10:42:52;;;;;;;8.52;3.50;;;28.50;99.90;;;;;;4789955;29;20046;-93
2022/05/23 10:45:33;;;;;;;7.97;3.60;;;28.10;99.90;;;;;;4788960;29;20045;-92
2022/05/23 10:48:26;;;;;;;21.05;4.32;;;27.80;99.90;;;;;;4774866;30;20507;-91
2022/05/23 10:51:29;;;;;;;9.25;4.10;;;27.30;99.90;;;;;;4789946;29;20039;-93
2022/05/23 10:54:30;;;;;;;9.50;3.80;;;27.10;99.90;;;;;;4789634;30;20509;-93
2022/05/23 11:00:45;;;;;;;18.83;4.18;;;27.50;99.90;;;;;;4756405;30;20042;-92
2022/05/23 11:03:36;;;;;;;8.15;2.97;;;28.00;99.90;;;;;;4724646;30;20064;-92
2022/05/23 11:06:33;;;;;;;8.05;3.17;;;27.90;99.90;;;;;;4721932;30;20052;-95
2022/05/23 11:09:33;;;;;;;8.80;3.30;;;27.90;99.90;;;;;;4707031;30;20059;-93
2022/05/23 11:12:32;;;;;;;8.65;3.40;;;28.00;99.90;;;;;;4706752;30;20032;-92
2022/05/23 11:15:18;;;;;;;9.63;3.30;;;27.90;99.90;;;;;;4720963;30;20090;-92
2022/05/23 11:18:13;;;;;;;8.57;2.83;;;27.80;99.90;;;;;;4704043;30;20045;-92
2022/05/23 11:20:41;;;;;;;9.00;3.40;;;27.90;99.90;;;;;;4692306;30;20056;-92
2022/05/23 11:23:19;;;;;;;7.00;3.22;;;28.00;99.90;;;;;;4703125;30;20053;-91
2022/05/23 11:25:54;;;;;;;12.30;3.60;;;28.10;99.90;;;;;;4703524;30;20381;-92
2022/05/23 11:34:17;;;;;;;11.82;3.63;;;28.20;99.90;;;;;;4734992;30;20029;-92
2022/05/23 11:37:08;;;;;;;;;;;27.60;99.90;;;;;;4720746;30;20036;-91
2022/05/23 11:39:51;;;;;;;10.48;4.10;;;27.60;99.90;;;;;;4721049;30;19949;-91
2022/05/23 11:42:53;;;;;;;11.85;3.53;;;27.60;99.90;;;;;;4720079;30;20040;-92
2022/05/23 11:46:00;;;;;;;9.07;4.00;;;27.80;99.90;;;;;;4720396;30;20043;-92
2022/05/23 11:48:49;;;;;;;10.30;3.92;;;27.60;99.90;;;;;;4734545;30;20044;-91
2022/05/23 11:51:36;;;;;;;12.40;3.78;;;27.10;99.90;;;;;;4756009;30;20042;-93
2022/05/23 11:54:08;;;;;;;9.13;3.13;;;26.90;99.90;;;;;;4756073;30;20082;-91
2022/05/23 11:57:15;;;;;;;11.85;4.18;;;26.80;99.90;;;;;;4741834;30;20038;-92
2022/05/23 11:59:44;;;;;;;13.68;3.85;;;26.80;99.90;;;;;;4755980;30;20127;-93
2022/05/23 12:02:11;;;;;;;10.32;3.70;;;27.30;99.90;;;;;;4756573;30;20039;-91
2022/05/23 12:04:51;;;;;;;8.43;3.67;;;27.40;99.90;;;;;;4758836;30;20039;-91
2022/05/23 12:07:56;;;;;;;8.75;3.17;;;27.20;99.90;;;;;;4774301;30;20031;-91
2022/05/23 12:10:22;;;;;;;12.95;3.90;;;26.90;99.90;;;;;;4773500;30;20047;-91
2022/05/23 12:12:56;;;;;;;10.75;4.00;;;26.60;99.90;;;;;;4760099;30;20035;-91
2022/05/23 12:15:49;;;;;;;10.90;3.65;;;26.70;99.90;;;;;;4773452;30;20100;-91
2022/05/23 12:18:23;;;;;;;9.77;3.80;;;26.80;99.90;;;;;;4773315;30;20126;-90
2022/05/23 12:21:21;;;;;;;8.13;3.70;;;26.80;99.90;;;;;;4773758;30;20043;-92
2022/05/23 12:24:08;;;;;;;9.90;3.65;;;26.90;99.90;;;;;;4740250;30;20425;-92
2022/05/23 12:26:35;;;;;;;8.60;3.60;;;27.00;99.90;;;;;;4754823;30;20036;-92
2022/05/23 12:29:34;;;;;;;11.38;3.70;;;27.30;99.90;;;;;;4769524;30;20043;-91
2022/05/23 12:32:26;;;;;;;15.82;3.85;;;27.20;99.90;;;;;;4740712;30;20164;-91
2022/05/23 12:34:56;;;;;;;19.55;3.88;;;27.10;99.90;;;;;;4754890;30;20039;-91
2022/05/23 12:37:53;;;;;;;17.52;4.75;;;26.70;99.90;;;;;;4755348;30;20051;-94
2022/05/23 12:40:30;;;;;;;10.10;3.90;;;26.70;99.90;;;;;;4754713;30;20487;-93
2022/05/23 12:43:42;;;;;;;17.70;4.05;;;26.80;99.90;;;;;;4754871;30;20067;-92
2022/05/23 23:24:45;;;;;;;22.80;12.48;;;20.20;99.90;;;;;;1457513;24;20037;-86
2022/05/23 23:27:12;;;;;;;29.55;12.52;;;20.20;99.90;;;;;;4769010;30;20064;-88
2022/05/23 23:29:38;;;;;;;25.20;12.68;;;20.20;99.90;;;;;;4771241;30;20028;-88
2022/05/23 23:32:05;;;;;;;25.23;12.32;;;20.20;99.90;;;;;;4767418;30;20089;-88
2022/05/23 23:40:12;;;;;;;33.20;14.15;;;20.20;99.90;;;;;;4786224;30;20115;-88
2022/05/23 23:42:40;;;;;;;30.23;14.60;;;20.20;99.90;;;;;;4786876;30;20047;-88
2022/05/23 23:45:08;;;;;;;26.75;13.40;;;20.20;99.90;;;;;;4786025;30;20028;-87
2022/05/23 23:47:38;;;;;;;23.55;12.40;;;20.20;99.90;;;;;;4756196;30;20031;-88
2022/05/23 23:50:07;;;;;;;36.25;13.30;;;20.20;99.90;;;;;;4770768;30;20505;-88
2022/05/23 23:52:33;;;;;;;32.28;13.98;;;20.20;99.90;;;;;;4783517;30;20035;-88
2022/05/23 23:55:00;;;;;;;31.65;13.82;;;20.20;99.90;;;;;;4770382;30;20038;-87
2022/05/23 23:57:29;;;;;;;29.33;15.18;;;20.10;99.90;;;;;;4767035;30;20040;-89
2022/05/23 23:59:55;;;;;;;29.23;13.85;;;20.10;99.90;;;;;;4770800;30;20036;-88
